sensor_id;sensor_type;location;lat;lon;timestamp;P1;durP1;ratioP1;P2;durP2;ratioP2
29120;SDS011;16191;49.548;8.658;2023-09-19T00:00:48;5.65;;;1.75;;
29120;SDS011;16191;49.548;8.658;2023-09-19T00:03:15;4.63;;;1.10;;
29120;SDS011;16191;49.548;8.658;2023-09-19T00:05:43;3.55;;;0.90;;
29120;SDS011;16191;49.548;8.658;2023-09-19T00:08:11;2.78;;;1.17;;
29120;SDS011;16191;49.548;8.658;2023-09-19T00:10:40;3.22;;;1.20;;
29120;SDS011;16191;49.548;8.658;2023-09-19T00:13:08;3.17;;;0.93;;
29120;SDS011;16191;49.548;8.658;2023-09-19T00:15:40;2.65;;;1.00;;
29120;SDS011;16191;49.548;8.658;2023-09-19T00:18:14;4.78;;;1.15;;
29120;SDS011;16191;49.548;8.658;2023-09-19T00:20:48;4.82;;;1.35;;
29120;SDS011;16191;49.548;8.658;2023-09-19T00:23:15;2.67;;;1.30;;
29120;SDS011;16191;49.548;8.658;2023-09-19T00:25:43;5.55;;;1.27;;
29120;SDS011;16191;49.548;8.658;2023-09-19T00:28:09;2.88;;;1.05;;
29120;SDS011;16191;49.548;8.658;2023-09-19T00:30:36;5.28;;;1.33;;
29120;SDS011;16191;49.548;8.658;2023-09-19T00:33:05;5.18;;;1.35;;
29120;SDS011;16191;49.548;8.658;2023-09-19T00:35:34;2.35;;;1.00;;
29120;SDS011;16191;49.548;8.658;2023-09-19T00:38:01;3.63;;;1.20;;
29120;SDS011;16191;49.548;8.658;2023-09-19T00:40:28;2.35;;;1.15;;
29120;SDS011;16191;49.548;8.658;2023-09-19T00:42:59;2.42;;;0.90;;
29120;SDS011;16191;49.548;8.658;2023-09-19T00:45:29;2.72;;;1.38;;
29120;SDS011;16191;49.548;8.658;2023-09-19T00:47:55;4.60;;;1.23;;
29120;SDS011;16191;49.548;8.658;2023-09-19T00:50:25;6.70;;;1.10;;
29120;SDS011;16191;49.548;8.658;2023-09-19T00:52:54;2.42;;;1.10;;
29120;SDS011;16191;49.548;8.658;2023-09-19T00:55:25;2.40;;;1.05;;
29120;SDS011;16191;49.548;8.658;2023-09-19T00:57:52;2.03;;;1.10;;
29120;SDS011;16191;49.548;8.658;2023-09-19T01:00:21;2.28;;;1.20;;
29120;SDS011;16191;49.548;8.658;2023-09-19T01:02:50;2.97;;;1.20;;
29120;SDS011;16191;49.548;8.658;2023-09-19T01:05:17;3.53;;;1.10;;
29120;SDS011;16191;49.548;8.658;2023-09-19T01:07:44;1.95;;;1.05;;
29120;SDS011;16191;49.548;8.658;2023-09-19T01:10:12;5.00;;;1.10;;
29120;SDS011;16191;49.548;8.658;2023-09-19T01:27:38;4.57;;;1.10;;
29120;SDS011;16191;49.548;8.658;2023-09-19T01:30:33;2.58;;;1.10;;
29120;SDS011;16191;49.548;8.658;2023-09-19T01:33:25;3.33;;;1.20;;
29120;SDS011;16191;49.548;8.658;2023-09-19T01:35:52;3.25;;;1.35;;
29120;SDS011;16191;49.548;8.658;2023-09-19T01:38:19;3.95;;;1.50;;
29120;SDS011;16191;49.548;8.658;2023-09-19T01:40:48;3.00;;;1.10;;
29120;SDS011;16191;49.548;8.658;2023-09-19T01:43:31;2.85;;;1.30;;
29120;SDS011;16191;49.548;8.658;2023-09-19T01:46:04;5.63;;;1.40;;
29120;SDS011;16191;49.548;8.658;2023-09-19T01:48:48;4.30;;;1.63;;
29120;SDS011;16191;49.548;8.658;2023-09-19T01:54:27;4.78;;;1.35;;
29120;SDS011;16191;49.548;8.658;2023-09-19T01:59:37;4.47;;;1.42;;
29120;SDS011;16191;49.548;8.658;2023-09-19T02:02:07;4.95;;;1.60;;
29120;SDS011;16191;49.548;8.658;2023-09-19T02:04:35;3.90;;;1.20;;
29120;SDS011;16191;49.548;8.658;2023-09-19T02:07:02;6.18;;;1.35;;
29120;SDS011;16191;49.548;8.658;2023-09-19T02:09:32;4.32;;;1.35;;
29120;SDS011;16191;49.548;8.658;2023-09-19T02:12:02;3.00;;;1.50;;
29120;SDS011;16191;49.548;8.658;2023-09-19T02:14:30;6.07;;;1.95;;
29120;SDS011;16191;49.548;8.658;2023-09-19T02:16:57;3.00;;;1.33;;
29120;SDS011;16191;49.548;8.658;2023-09-19T02:19:24;5.00;;;1.50;;
29120;SDS011;16191;49.548;8.658;2023-09-19T02:21:51;4.63;;;1.30;;
29120;SDS011;16191;49.548;8.658;2023-09-19T02:24:18;5.25;;;1.58;;
29120;SDS011;16191;49.548;8.658;2023-09-19T02:26:45;5.25;;;1.80;;
29120;SDS011;16191;49.548;8.658;2023-09-19T02:29:12;3.25;;;1.60;;
29120;SDS011;16191;49.548;8.658;2023-09-19T02:31:40;7.15;;;1.20;;
29120;SDS011;16191;49.548;8.658;2023-09-19T02:34:06;5.18;;;1.42;;
29120;SDS011;16191;49.548;8.658;2023-09-19T02:36:35;4.10;;;1.40;;
29120;SDS011;16191;49.548;8.658;2023-09-19T02:39:02;3.83;;;1.40;;
29120;SDS011;16191;49.548;8.658;2023-09-19T02:41:31;4.35;;;1.52;;
29120;SDS011;16191;49.548;8.658;2023-09-19T02:43:59;4.82;;;1.60;;
29120;SDS011;16191;49.548;8.658;2023-09-19T02:46:26;4.45;;;1.75;;
29120;SDS011;16191;49.548;8.658;2023-09-19T02:48:53;6.85;;;1.73;;
29120;SDS011;16191;49.548;8.658;2023-09-19T02:51:21;8.30;;;1.83;;
29120;SDS011;16191;49.548;8.658;2023-09-19T02:53:48;6.07;;;1.60;;
29120;SDS011;16191;49.548;8.658;2023-09-19T02:56:16;7.57;;;1.60;;
29120;SDS011;16191;49.548;8.658;2023-09-19T02:58:42;2.90;;;1.38;;
29120;SDS011;16191;49.548;8.658;2023-09-19T03:01:10;6.30;;;1.75;;
29120;SDS011;16191;49.548;8.658;2023-09-19T03:03:40;6.57;;;1.70;;
29120;SDS011;16191;49.548;8.658;2023-09-19T03:06:07;7.18;;;1.90;;
29120;SDS011;16191;49.548;8.658;2023-09-19T03:08:39;4.93;;;1.40;;
29120;SDS011;16191;49.548;8.658;2023-09-19T03:11:08;4.80;;;1.48;;
29120;SDS011;16191;49.548;8.658;2023-09-19T03:13:59;5.13;;;1.92;;
29120;SDS011;16191;49.548;8.658;2023-09-19T03:16:26;6.75;;;1.50;;
29120;SDS011;16191;49.548;8.658;2023-09-19T03:21:23;4.55;;;1.48;;
29120;SDS011;16191;49.548;8.658;2023-09-19T03:23:49;2.53;;;1.30;;
29120;SDS011;16191;49.548;8.658;2023-09-19T03:26:38;5.78;;;1.40;;
29120;SDS011;16191;49.548;8.658;2023-09-19T03:29:05;5.28;;;1.45;;
29120;SDS011;16191;49.548;8.658;2023-09-19T03:31:37;7.82;;;1.75;;
29120;SDS011;16191;49.548;8.658;2023-09-19T03:34:05;4.95;;;1.70;;
29120;SDS011;16191;49.548;8.658;2023-09-19T03:36:35;5.65;;;1.80;;
29120;SDS011;16191;49.548;8.658;2023-09-19T03:39:02;8.77;;;1.77;;
29120;SDS011;16191;49.548;8.658;2023-09-19T03:41:31;4.00;;;1.45;;
29120;SDS011;16191;49.548;8.658;2023-09-19T03:43:59;4.13;;;1.45;;
29120;SDS011;16191;49.548;8.658;2023-09-19T03:46:26;3.05;;;1.50;;
29120;SDS011;16191;49.548;8.658;2023-09-19T03:48:53;4.43;;;1.67;;
29120;SDS011;16191;49.548;8.658;2023-09-19T03:51:20;4.47;;;1.58;;
29120;SDS011;16191;49.548;8.658;2023-09-19T03:53:48;9.52;;;2.22;;
29120;SDS011;16191;49.548;8.658;2023-09-19T03:56:16;5.35;;;1.42;;
29120;SDS011;16191;49.548;8.658;2023-09-19T03:58:43;3.17;;;1.63;;
29120;SDS011;16191;49.548;8.658;2023-09-19T04:01:09;7.00;;;1.80;;
29120;SDS011;16191;49.548;8.658;2023-09-19T04:03:36;3.85;;;1.50;;
29120;SDS011;16191;49.548;8.658;2023-09-19T04:06:13;7.13;;;1.98;;
29120;SDS011;16191;49.548;8.658;2023-09-19T04:08:41;4.07;;;1.77;;
29120;SDS011;16191;49.548;8.658;2023-09-19T04:11:08;7.70;;;2.05;;
29120;SDS011;16191;49.548;8.658;2023-09-19T04:13:35;8.65;;;2.15;;
29120;SDS011;16191;49.548;8.658;2023-09-19T04:16:02;3.70;;;1.70;;
29120;SDS011;16191;49.548;8.658;2023-09-19T04:18:36;4.15;;;2.35;;
29120;SDS011;16191;49.548;8.658;2023-09-19T04:21:05;5.55;;;1.90;;
29120;SDS011;16191;49.548;8.658;2023-09-19T04:23:32;4.13;;;1.80;;
29120;SDS011;16191;49.548;8.658;2023-09-19T04:25:59;7.70;;;2.35;;
29120;SDS011;16191;49.548;8.658;2023-09-19T04:28:26;7.72;;;1.83;;
29120;SDS011;16191;49.548;8.658;2023-09-19T04:30:54;9.82;;;1.90;;
29120;SDS011;16191;49.548;8.658;2023-09-19T04:33:21;3.38;;;1.90;;
29120;SDS011;16191;49.548;8.658;2023-09-19T04:35:51;5.10;;;1.85;;
29120;SDS011;16191;49.548;8.658;2023-09-19T04:38:20;5.55;;;2.00;;
29120;SDS011;16191;49.548;8.658;2023-09-19T04:40:47;8.07;;;2.15;;
29120;SDS011;16191;49.548;8.658;2023-09-19T04:43:14;5.70;;;1.90;;
29120;SDS011;16191;49.548;8.658;2023-09-19T04:45:42;4.20;;;1.75;;
29120;SDS011;16191;49.548;8.658;2023-09-19T04:48:08;4.80;;;1.80;;
29120;SDS011;16191;49.548;8.658;2023-09-19T04:50:35;7.95;;;2.17;;
29120;SDS011;16191;49.548;8.658;2023-09-19T04:53:03;8.38;;;2.05;;
29120;SDS011;16191;49.548;8.658;2023-09-19T04:55:31;4.13;;;1.70;;
29120;SDS011;16191;49.548;8.658;2023-09-19T04:57:59;4.38;;;1.60;;
29120;SDS011;16191;49.548;8.658;2023-09-19T05:00:26;6.97;;;2.00;;
29120;SDS011;16191;49.548;8.658;2023-09-19T05:02:56;8.25;;;1.63;;
29120;SDS011;16191;49.548;8.658;2023-09-19T05:05:23;5.38;;;1.92;;
29120;SDS011;16191;49.548;8.658;2023-09-19T05:07:51;2.95;;;1.70;;
29120;SDS011;16191;49.548;8.658;2023-09-19T05:10:20;4.40;;;1.92;;
29120;SDS011;16191;49.548;8.658;2023-09-19T05:12:46;6.85;;;2.35;;
29120;SDS011;16191;49.548;8.658;2023-09-19T05:15:14;5.30;;;1.77;;
29120;SDS011;16191;49.548;8.658;2023-09-19T05:17:52;8.88;;;1.92;;
29120;SDS011;16191;49.548;8.658;2023-09-19T05:20:24;10.02;;;1.95;;
29120;SDS011;16191;49.548;8.658;2023-09-19T05:22:59;7.00;;;1.90;;
29120;SDS011;16191;49.548;8.658;2023-09-19T05:25:29;4.80;;;1.80;;
29120;SDS011;16191;49.548;8.658;2023-09-19T05:27:58;7.97;;;1.80;;
29120;SDS011;16191;49.548;8.658;2023-09-19T05:30:25;4.38;;;1.95;;
29120;SDS011;16191;49.548;8.658;2023-09-19T05:32:55;3.95;;;2.00;;
29120;SDS011;16191;49.548;8.658;2023-09-19T05:35:23;6.80;;;1.90;;
29120;SDS011;16191;49.548;8.658;2023-09-19T05:37:51;8.60;;;2.10;;
29120;SDS011;16191;49.548;8.658;2023-09-19T05:40:18;6.20;;;2.33;;
29120;SDS011;16191;49.548;8.658;2023-09-19T05:42:45;6.82;;;2.13;;
29120;SDS011;16191;49.548;8.658;2023-09-19T05:45:13;6.53;;;2.75;;
29120;SDS011;16191;49.548;8.658;2023-09-19T05:47:40;7.47;;;2.50;;
29120;SDS011;16191;49.548;8.658;2023-09-19T05:50:12;5.90;;;2.20;;
29120;SDS011;16191;49.548;8.658;2023-09-19T05:52:39;7.85;;;2.22;;
29120;SDS011;16191;49.548;8.658;2023-09-19T05:55:05;5.53;;;2.63;;
29120;SDS011;16191;49.548;8.658;2023-09-19T05:57:34;8.13;;;2.58;;
29120;SDS011;16191;49.548;8.658;2023-09-19T06:00:01;11.60;;;2.40;;
29120;SDS011;16191;49.548;8.658;2023-09-19T06:02:37;5.38;;;2.10;;
29120;SDS011;16191;49.548;8.658;2023-09-19T06:05:04;7.18;;;2.17;;
29120;SDS011;16191;49.548;8.658;2023-09-19T06:07:37;5.15;;;2.30;;
29120;SDS011;16191;49.548;8.658;2023-09-19T06:10:04;10.52;;;2.13;;
29120;SDS011;16191;49.548;8.658;2023-09-19T06:12:37;7.30;;;2.42;;
29120;SDS011;16191;49.548;8.658;2023-09-19T06:15:04;12.98;;;2.63;;
29120;SDS011;16191;49.548;8.658;2023-09-19T06:17:58;8.30;;;2.75;;
29120;SDS011;16191;49.548;8.658;2023-09-19T06:20:26;12.05;;;3.38;;
29120;SDS011;16191;49.548;8.658;2023-09-19T06:22:53;12.90;;;3.20;;
29120;SDS011;16191;49.548;8.658;2023-09-19T06:25:20;10.18;;;2.60;;
29120;SDS011;16191;49.548;8.658;2023-09-19T06:27:49;10.35;;;2.22;;
29120;SDS011;16191;49.548;8.658;2023-09-19T06:30:18;6.40;;;2.40;;
29120;SDS011;16191;49.548;8.658;2023-09-19T06:32:45;9.10;;;2.65;;
29120;SDS011;16191;49.548;8.658;2023-09-19T06:35:13;6.63;;;2.22;;
29120;SDS011;16191;49.548;8.658;2023-09-19T06:37:41;6.65;;;2.33;;
29120;SDS011;16191;49.548;8.658;2023-09-19T06:40:12;13.88;;;2.63;;
29120;SDS011;16191;49.548;8.658;2023-09-19T06:42:43;15.73;;;2.38;;
29120;SDS011;16191;49.548;8.658;2023-09-19T06:45:16;11.35;;;2.60;;
29120;SDS011;16191;49.548;8.658;2023-09-19T06:47:46;9.70;;;2.60;;
29120;SDS011;16191;49.548;8.658;2023-09-19T06:50:19;11.15;;;2.72;;
29120;SDS011;16191;49.548;8.658;2023-09-19T06:52:53;11.55;;;2.60;;
29120;SDS011;16191;49.548;8.658;2023-09-19T06:55:21;6.55;;;2.28;;
29120;SDS011;16191;49.548;8.658;2023-09-19T06:57:51;10.30;;;2.38;;
29120;SDS011;16191;49.548;8.658;2023-09-19T07:00:20;7.55;;;2.60;;
29120;SDS011;16191;49.548;8.658;2023-09-19T07:02:57;9.52;;;2.65;;
29120;SDS011;16191;49.548;8.658;2023-09-19T07:05:27;13.90;;;2.67;;
29120;SDS011;16191;49.548;8.658;2023-09-19T07:07:54;7.82;;;2.20;;
29120;SDS011;16191;49.548;8.658;2023-09-19T07:10:22;8.40;;;2.50;;
29120;SDS011;16191;49.548;8.658;2023-09-19T07:12:54;9.35;;;2.30;;
29120;SDS011;16191;49.548;8.658;2023-09-19T07:15:23;12.95;;;3.00;;
29120;SDS011;16191;49.548;8.658;2023-09-19T07:17:51;8.43;;;2.50;;
29120;SDS011;16191;49.548;8.658;2023-09-19T07:20:23;12.82;;;3.13;;
29120;SDS011;16191;49.548;8.658;2023-09-19T07:23:00;14.52;;;2.85;;
29120;SDS011;16191;49.548;8.658;2023-09-19T07:25:28;13.68;;;2.97;;
29120;SDS011;16191;49.548;8.658;2023-09-19T07:27:55;10.65;;;3.22;;
29120;SDS011;16191;49.548;8.658;2023-09-19T07:30:22;9.50;;;2.45;;
29120;SDS011;16191;49.548;8.658;2023-09-19T07:32:49;9.70;;;2.38;;
29120;SDS011;16191;49.548;8.658;2023-09-19T07:35:16;7.55;;;2.28;;
29120;SDS011;16191;49.548;8.658;2023-09-19T07:37:43;7.63;;;2.42;;
29120;SDS011;16191;49.548;8.658;2023-09-19T07:40:09;9.02;;;2.10;;
29120;SDS011;16191;49.548;8.658;2023-09-19T07:42:37;9.18;;;2.72;;
29120;SDS011;16191;49.548;8.658;2023-09-19T07:45:07;11.25;;;2.13;;
29120;SDS011;16191;49.548;8.658;2023-09-19T07:47:35;10.80;;;2.53;;
29120;SDS011;16191;49.548;8.658;2023-09-19T07:50:02;10.75;;;2.30;;
29120;SDS011;16191;49.548;8.658;2023-09-19T07:52:29;9.77;;;2.15;;
29120;SDS011;16191;49.548;8.658;2023-09-19T07:54:56;8.95;;;2.05;;
29120;SDS011;16191;49.548;8.658;2023-09-19T07:57:24;5.65;;;1.85;;
29120;SDS011;16191;49.548;8.658;2023-09-19T07:59:51;9.27;;;1.80;;
29120;SDS011;16191;49.548;8.658;2023-09-19T08:02:17;6.78;;;1.85;;
29120;SDS011;16191;49.548;8.658;2023-09-19T08:04:45;8.18;;;2.30;;
29120;SDS011;16191;49.548;8.658;2023-09-19T08:07:12;7.72;;;1.80;;
29120;SDS011;16191;49.548;8.658;2023-09-19T08:12:12;5.30;;;1.80;;
29120;SDS011;16191;49.548;8.658;2023-09-19T08:14:39;6.20;;;2.10;;
29120;SDS011;16191;49.548;8.658;2023-09-19T08:17:07;5.57;;;1.60;;
29120;SDS011;16191;49.548;8.658;2023-09-19T08:19:34;6.32;;;2.13;;
29120;SDS011;16191;49.548;8.658;2023-09-19T08:22:03;11.00;;;1.90;;
29120;SDS011;16191;49.548;8.658;2023-09-19T08:24:30;8.80;;;2.33;;
29120;SDS011;16191;49.548;8.658;2023-09-19T08:26:57;6.53;;;1.73;;
29120;SDS011;16191;49.548;8.658;2023-09-19T08:29:24;5.53;;;1.75;;
29120;SDS011;16191;49.548;8.658;2023-09-19T08:31:55;12.88;;;2.58;;
29120;SDS011;16191;49.548;8.658;2023-09-19T08:34:26;6.15;;;1.98;;
29120;SDS011;16191;49.548;8.658;2023-09-19T08:36:53;5.68;;;1.75;;
29120;SDS011;16191;49.548;8.658;2023-09-19T08:39:24;5.53;;;1.65;;
29120;SDS011;16191;49.548;8.658;2023-09-19T08:41:57;7.25;;;1.70;;
29120;SDS011;16191;49.548;8.658;2023-09-19T08:44:25;7.10;;;1.85;;
29120;SDS011;16191;49.548;8.658;2023-09-19T08:46:54;6.05;;;1.58;;
29120;SDS011;16191;49.548;8.658;2023-09-19T08:49:24;9.95;;;1.75;;
29120;SDS011;16191;49.548;8.658;2023-09-19T08:52:10;5.40;;;1.58;;
29120;SDS011;16191;49.548;8.658;2023-09-19T08:54:46;7.15;;;1.80;;
29120;SDS011;16191;49.548;8.658;2023-09-19T08:57:15;6.45;;;1.92;;
29120;SDS011;16191;49.548;8.658;2023-09-19T08:59:50;7.15;;;1.80;;
29120;SDS011;16191;49.548;8.658;2023-09-19T09:02:17;6.80;;;2.08;;
29120;SDS011;16191;49.548;8.658;2023-09-19T09:04:47;4.65;;;1.63;;
29120;SDS011;16191;49.548;8.658;2023-09-19T09:07:16;6.80;;;1.70;;
29120;SDS011;16191;49.548;8.658;2023-09-19T09:09:43;5.05;;;1.60;;
29120;SDS011;16191;49.548;8.658;2023-09-19T09:12:11;6.80;;;2.05;;
29120;SDS011;16191;49.548;8.658;2023-09-19T09:14:39;3.78;;;1.63;;
29120;SDS011;16191;49.548;8.658;2023-09-19T09:17:07;4.68;;;1.50;;
29120;SDS011;16191;49.548;8.658;2023-09-19T09:19:34;12.57;;;2.10;;
29120;SDS011;16191;49.548;8.658;2023-09-19T09:22:07;5.47;;;2.10;;
29120;SDS011;16191;49.548;8.658;2023-09-19T09:24:35;4.32;;;1.80;;
29120;SDS011;16191;49.548;8.658;2023-09-19T09:27:05;6.35;;;2.00;;
29120;SDS011;16191;49.548;8.658;2023-09-19T09:29:44;6.93;;;1.75;;
29120;SDS011;16191;49.548;8.658;2023-09-19T09:32:19;6.65;;;1.75;;
29120;SDS011;16191;49.548;8.658;2023-09-19T09:34:47;6.15;;;2.08;;
29120;SDS011;16191;49.548;8.658;2023-09-19T09:37:16;7.80;;;2.00;;
29120;SDS011;16191;49.548;8.658;2023-09-19T09:39:52;7.15;;;1.90;;
29120;SDS011;16191;49.548;8.658;2023-09-19T09:42:38;6.45;;;2.00;;
29120;SDS011;16191;49.548;8.658;2023-09-19T09:45:12;9.23;;;2.20;;
29120;SDS011;16191;49.548;8.658;2023-09-19T09:47:42;9.63;;;1.90;;
29120;SDS011;16191;49.548;8.658;2023-09-19T09:50:24;5.78;;;1.85;;
29120;SDS011;16191;49.548;8.658;2023-09-19T09:53:25;9.45;;;1.83;;
29120;SDS011;16191;49.548;8.658;2023-09-19T09:56:01;7.75;;;2.05;;
29120;SDS011;16191;49.548;8.658;2023-09-19T09:58:36;7.82;;;2.20;;
29120;SDS011;16191;49.548;8.658;2023-09-19T10:01:07;10.57;;;1.70;;
29120;SDS011;16191;49.548;8.658;2023-09-19T10:03:37;10.80;;;2.10;;
29120;SDS011;16191;49.548;8.658;2023-09-19T10:06:14;6.63;;;1.98;;
29120;SDS011;16191;49.548;8.658;2023-09-19T10:11:41;5.45;;;1.92;;
29120;SDS011;16191;49.548;8.658;2023-09-19T10:14:12;7.63;;;2.10;;
29120;SDS011;16191;49.548;8.658;2023-09-19T10:16:48;5.82;;;1.70;;
29120;SDS011;16191;49.548;8.658;2023-09-19T10:19:23;10.68;;;2.05;;
29120;SDS011;16191;49.548;8.658;2023-09-19T10:21:56;5.82;;;2.08;;
29120;SDS011;16191;49.548;8.658;2023-09-19T10:24:25;2.85;;;1.52;;
29120;SDS011;16191;49.548;8.658;2023-09-19T10:26:53;10.95;;;3.15;;
29120;SDS011;16191;49.548;8.658;2023-09-19T10:29:21;5.75;;;1.95;;
29120;SDS011;16191;49.548;8.658;2023-09-19T10:31:52;5.93;;;1.98;;
29120;SDS011;16191;49.548;8.658;2023-09-19T10:34:19;9.88;;;1.77;;
29120;SDS011;16191;49.548;8.658;2023-09-19T10:36:48;9.18;;;1.98;;
29120;SDS011;16191;49.548;8.658;2023-09-19T10:39:17;5.03;;;1.60;;
29120;SDS011;16191;49.548;8.658;2023-09-19T10:41:52;3.47;;;1.52;;
29120;SDS011;16191;49.548;8.658;2023-09-19T10:44:25;9.73;;;1.98;;
29120;SDS011;16191;49.548;8.658;2023-09-19T10:46:52;7.10;;;1.88;;
29120;SDS011;16191;49.548;8.658;2023-09-19T10:49:20;4.25;;;1.92;;
29120;SDS011;16191;49.548;8.658;2023-09-19T10:51:49;5.63;;;1.77;;
29120;SDS011;16191;49.548;8.658;2023-09-19T10:54:21;9.02;;;1.90;;
29120;SDS011;16191;49.548;8.658;2023-09-19T10:56:53;7.57;;;1.88;;
29120;SDS011;16191;49.548;8.658;2023-09-19T10:59:21;8.90;;;2.05;;
29120;SDS011;16191;49.548;8.658;2023-09-19T11:01:48;10.77;;;1.90;;
29120;SDS011;16191;49.548;8.658;2023-09-19T11:07:02;11.70;;;2.05;;
29120;SDS011;16191;49.548;8.658;2023-09-19T11:16:02;5.00;;;1.80;;
29120;SDS011;16191;49.548;8.658;2023-09-19T11:26:40;5.50;;;1.63;;
29120;SDS011;16191;49.548;8.658;2023-09-19T11:29:30;5.07;;;1.48;;
29120;SDS011;16191;49.548;8.658;2023-09-19T11:31:57;6.57;;;2.00;;
29120;SDS011;16191;49.548;8.658;2023-09-19T11:40:08;5.55;;;1.73;;
29120;SDS011;16191;49.548;8.658;2023-09-19T11:42:43;3.97;;;1.60;;
29120;SDS011;16191;49.548;8.658;2023-09-19T11:48:18;3.90;;;1.30;;
29120;SDS011;16191;49.548;8.658;2023-09-19T11:50:45;6.32;;;1.70;;
29120;SDS011;16191;49.548;8.658;2023-09-19T11:53:13;4.72;;;1.40;;
29120;SDS011;16191;49.548;8.658;2023-09-19T11:55:43;3.78;;;1.20;;
29120;SDS011;16191;49.548;8.658;2023-09-19T11:58:14;5.35;;;1.30;;
29120;SDS011;16191;49.548;8.658;2023-09-19T12:00:43;6.30;;;1.98;;
29120;SDS011;16191;49.548;8.658;2023-09-19T12:03:11;6.05;;;1.70;;
29120;SDS011;16191;49.548;8.658;2023-09-19T12:05:40;6.40;;;1.83;;
29120;SDS011;16191;49.548;8.658;2023-09-19T12:08:07;3.50;;;1.40;;
29120;SDS011;16191;49.548;8.658;2023-09-19T12:10:47;3.35;;;1.33;;
29120;SDS011;16191;49.548;8.658;2023-09-19T12:13:16;4.25;;;1.40;;
29120;SDS011;16191;49.548;8.658;2023-09-19T12:15:44;5.05;;;1.52;;
29120;SDS011;16191;49.548;8.658;2023-09-19T12:18:27;5.20;;;1.35;;
29120;SDS011;16191;49.548;8.658;2023-09-19T12:20:55;3.97;;;1.40;;
29120;SDS011;16191;49.548;8.658;2023-09-19T12:23:22;4.30;;;1.48;;
29120;SDS011;16191;49.548;8.658;2023-09-19T12:25:48;6.38;;;1.40;;
29120;SDS011;16191;49.548;8.658;2023-09-19T12:28:19;4.35;;;1.70;;
29120;SDS011;16191;49.548;8.658;2023-09-19T12:30:49;5.65;;;1.75;;
29120;SDS011;16191;49.548;8.658;2023-09-19T12:33:19;1.80;;;1.05;;
29120;SDS011;16191;49.548;8.658;2023-09-19T12:35:47;4.22;;;1.33;;
29120;SDS011;16191;49.548;8.658;2023-09-19T12:38:26;3.55;;;1.33;;
29120;SDS011;16191;49.548;8.658;2023-09-19T12:41:01;2.42;;;1.17;;
29120;SDS011;16191;49.548;8.658;2023-09-19T12:43:28;5.28;;;1.35;;
29120;SDS011;16191;49.548;8.658;2023-09-19T12:45:59;3.95;;;1.60;;
29120;SDS011;16191;49.548;8.658;2023-09-19T12:48:26;5.28;;;1.30;;
29120;SDS011;16191;49.548;8.658;2023-09-19T12:53:32;4.03;;;1.40;;
29120;SDS011;16191;49.548;8.658;2023-09-19T12:56:11;5.75;;;1.10;;
29120;SDS011;16191;49.548;8.658;2023-09-19T13:01:21;3.72;;;1.45;;
29120;SDS011;16191;49.548;8.658;2023-09-19T13:04:10;4.32;;;1.48;;
29120;SDS011;16191;49.548;8.658;2023-09-19T13:06:38;4.55;;;1.50;;
29120;SDS011;16191;49.548;8.658;2023-09-19T13:09:10;5.57;;;1.40;;
29120;SDS011;16191;49.548;8.658;2023-09-19T13:11:38;3.75;;;1.25;;
29120;SDS011;16191;49.548;8.658;2023-09-19T13:16:54;8.23;;;1.67;;
29120;SDS011;16191;49.548;8.658;2023-09-19T13:19:43;4.35;;;1.20;;
29120;SDS011;16191;49.548;8.658;2023-09-19T13:22:38;4.22;;;1.30;;
29120;SDS011;16191;49.548;8.658;2023-09-19T13:25:10;4.53;;;1.27;;
29120;SDS011;16191;49.548;8.658;2023-09-19T13:27:48;7.65;;;1.48;;
29120;SDS011;16191;49.548;8.658;2023-09-19T13:30:20;5.70;;;1.33;;
29120;SDS011;16191;49.548;8.658;2023-09-19T13:32:51;7.40;;;1.63;;
29120;SDS011;16191;49.548;8.658;2023-09-19T13:35:19;5.55;;;1.38;;
29120;SDS011;16191;49.548;8.658;2023-09-19T13:37:46;8.27;;;1.60;;
29120;SDS011;16191;49.548;8.658;2023-09-19T13:40:15;6.78;;;1.45;;
29120;SDS011;16191;49.548;8.658;2023-09-19T13:42:42;6.30;;;1.50;;
29120;SDS011;16191;49.548;8.658;2023-09-19T13:45:09;4.20;;;1.92;;
29120;SDS011;16191;49.548;8.658;2023-09-19T13:47:39;4.53;;;1.70;;
29120;SDS011;16191;49.548;8.658;2023-09-19T13:50:07;3.58;;;1.48;;
29120;SDS011;16191;49.548;8.658;2023-09-19T13:52:34;4.55;;;1.55;;
29120;SDS011;16191;49.548;8.658;2023-09-19T13:55:01;2.80;;;1.30;;
29120;SDS011;16191;49.548;8.658;2023-09-19T13:57:27;4.20;;;1.05;;
29120;SDS011;16191;49.548;8.658;2023-09-19T13:59:55;5.70;;;1.60;;
29120;SDS011;16191;49.548;8.658;2023-09-19T14:02:22;4.82;;;1.38;;
29120;SDS011;16191;49.548;8.658;2023-09-19T14:04:49;7.25;;;1.58;;
29120;SDS011;16191;49.548;8.658;2023-09-19T14:07:16;3.80;;;1.63;;
29120;SDS011;16191;49.548;8.658;2023-09-19T14:09:44;4.63;;;1.30;;
29120;SDS011;16191;49.548;8.658;2023-09-19T14:12:12;2.90;;;1.35;;
29120;SDS011;16191;49.548;8.658;2023-09-19T14:14:38;8.10;;;2.28;;
29120;SDS011;16191;49.548;8.658;2023-09-19T14:17:05;4.55;;;1.50;;
29120;SDS011;16191;49.548;8.658;2023-09-19T14:19:33;2.50;;;1.02;;
29120;SDS011;16191;49.548;8.658;2023-09-19T14:22:01;3.20;;;1.35;;
29120;SDS011;16191;49.548;8.658;2023-09-19T14:24:33;2.92;;;1.40;;
29120;SDS011;16191;49.548;8.658;2023-09-19T14:27:01;5.75;;;1.23;;
29120;SDS011;16191;49.548;8.658;2023-09-19T14:29:30;9.88;;;1.42;;
29120;SDS011;16191;49.548;8.658;2023-09-19T14:31:57;4.93;;;1.30;;
29120;SDS011;16191;49.548;8.658;2023-09-19T14:34:24;4.47;;;1.02;;
29120;SDS011;16191;49.548;8.658;2023-09-19T14:36:51;3.30;;;1.08;;
29120;SDS011;16191;49.548;8.658;2023-09-19T14:39:17;5.88;;;1.17;;
29120;SDS011;16191;49.548;8.658;2023-09-19T14:41:46;3.05;;;0.90;;
29120;SDS011;16191;49.548;8.658;2023-09-19T14:44:12;2.42;;;1.15;;
29120;SDS011;16191;49.548;8.658;2023-09-19T14:46:39;3.80;;;1.25;;
29120;SDS011;16191;49.548;8.658;2023-09-19T14:49:06;4.88;;;1.63;;
29120;SDS011;16191;49.548;8.658;2023-09-19T14:51:33;3.00;;;1.20;;
29120;SDS011;16191;49.548;8.658;2023-09-19T14:54:01;2.00;;;0.95;;
29120;SDS011;16191;49.548;8.658;2023-09-19T14:56:29;4.38;;;1.38;;
29120;SDS011;16191;49.548;8.658;2023-09-19T14:58:57;5.03;;;1.20;;
29120;SDS011;16191;49.548;8.658;2023-09-19T15:01:23;4.63;;;1.23;;
29120;SDS011;16191;49.548;8.658;2023-09-19T15:03:50;4.22;;;1.33;;
29120;SDS011;16191;49.548;8.658;2023-09-19T15:06:17;2.45;;;1.23;;
29120;SDS011;16191;49.548;8.658;2023-09-19T15:08:46;2.78;;;1.40;;
29120;SDS011;16191;49.548;8.658;2023-09-19T15:11:14;4.15;;;1.98;;
29120;SDS011;16191;49.548;8.658;2023-09-19T15:13:47;1.77;;;1.23;;
29120;SDS011;16191;49.548;8.658;2023-09-19T15:16:14;3.83;;;1.23;;
29120;SDS011;16191;49.548;8.658;2023-09-19T15:18:41;2.17;;;1.23;;
29120;SDS011;16191;49.548;8.658;2023-09-19T15:21:11;5.40;;;1.50;;
29120;SDS011;16191;49.548;8.658;2023-09-19T15:23:39;3.78;;;1.05;;
29120;SDS011;16191;49.548;8.658;2023-09-19T15:26:07;4.32;;;1.20;;
29120;SDS011;16191;49.548;8.658;2023-09-19T15:28:35;7.18;;;1.20;;
29120;SDS011;16191;49.548;8.658;2023-09-19T15:31:02;2.97;;;1.00;;
29120;SDS011;16191;49.548;8.658;2023-09-19T15:33:29;6.93;;;1.10;;
29120;SDS011;16191;49.548;8.658;2023-09-19T15:36:01;3.60;;;1.00;;
29120;SDS011;16191;49.548;8.658;2023-09-19T15:38:30;2.95;;;1.17;;
29120;SDS011;16191;49.548;8.658;2023-09-19T15:40:58;5.30;;;1.05;;
29120;SDS011;16191;49.548;8.658;2023-09-19T15:43:25;3.85;;;1.30;;
29120;SDS011;16191;49.548;8.658;2023-09-19T15:45:52;5.45;;;1.65;;
29120;SDS011;16191;49.548;8.658;2023-09-19T15:48:19;3.13;;;0.88;;
29120;SDS011;16191;49.548;8.658;2023-09-19T15:50:48;4.90;;;1.00;;
29120;SDS011;16191;49.548;8.658;2023-09-19T15:53:14;2.17;;;1.02;;
29120;SDS011;16191;49.548;8.658;2023-09-19T15:55:43;5.97;;;1.10;;
29120;SDS011;16191;49.548;8.658;2023-09-19T15:58:10;5.22;;;1.30;;
29120;SDS011;16191;49.548;8.658;2023-09-19T16:00:39;3.25;;;1.00;;
29120;SDS011;16191;49.548;8.658;2023-09-19T16:05:36;6.93;;;1.20;;